createdAt,value
2023-02-04T00:00:29.595Z,4.73
2023-02-04T00:02:59.540Z,4.57
2023-02-04T00:05:27.738Z,4.40
2023-02-04T00:07:55.760Z,4.50
2023-02-04T00:10:23.741Z,3.70
2023-02-04T00:12:51.679Z,4.67
2023-02-04T00:15:19.798Z,4.90
2023-02-04T00:17:47.812Z,5.27
2023-02-04T00:20:18.733Z,6.27
2023-02-04T00:22:46.855Z,5.27
2023-02-04T00:25:14.909Z,4.77
2023-02-04T00:27:43.031Z,5.00
2023-02-04T00:30:12.933Z,5.13
2023-02-04T00:32:42.129Z,5.10
2023-02-04T00:35:10.181Z,4.63
2023-02-04T00:37:39.607Z,5.90
2023-02-04T00:40:08.673Z,5.57
2023-02-04T00:42:36.571Z,5.20
2023-02-04T00:45:04.824Z,4.23
2023-02-04T00:47:32.866Z,4.03
2023-02-04T00:50:01.006Z,3.70
2023-02-04T00:52:29.172Z,4.40
2023-02-04T00:54:58.733Z,4.77
2023-02-04T00:57:26.742Z,4.00
2023-02-04T00:59:54.810Z,3.77
2023-02-04T01:02:23.035Z,4.17
2023-02-04T01:04:51.247Z,3.77
2023-02-04T01:07:19.781Z,4.17
2023-02-04T01:09:47.928Z,3.83
2023-02-04T01:12:17.231Z,3.97
2023-02-04T01:14:45.313Z,3.77
2023-02-04T01:17:13.279Z,3.20
2023-02-04T01:19:41.260Z,3.53
2023-02-04T01:22:09.317Z,3.90
2023-02-04T01:24:37.332Z,3.97
2023-02-04T01:27:25.442Z,4.00
2023-02-04T01:29:53.475Z,3.93
2023-02-04T01:32:21.462Z,3.07
2023-02-04T01:34:49.603Z,3.70
2023-02-04T01:37:19.010Z,3.57
2023-02-04T01:39:47.111Z,3.90
2023-02-04T01:42:15.205Z,3.90
2023-02-04T01:44:44.898Z,3.60
2023-02-04T01:47:13.272Z,4.57
2023-02-04T01:49:41.537Z,3.87
2023-02-04T01:52:11.537Z,3.93
2023-02-04T01:54:39.725Z,3.63
2023-02-04T01:57:14.634Z,3.27
2023-02-04T01:59:44.861Z,4.33
2023-02-04T02:02:39.119Z,3.90
2023-02-04T02:05:08.321Z,4.23
2023-02-04T02:07:36.425Z,3.90
2023-02-04T02:10:06.227Z,3.90
2023-02-04T02:12:34.245Z,5.00
2023-02-04T02:15:04.038Z,4.00
2023-02-04T02:17:33.487Z,4.40
2023-02-04T02:20:01.533Z,4.07
2023-02-04T02:22:34.508Z,4.23
2023-02-04T02:25:10.275Z,3.77
2023-02-04T02:27:38.344Z,4.30
2023-02-04T02:30:07.645Z,4.27
2023-02-04T02:32:37.377Z,4.00
2023-02-04T02:35:06.571Z,4.87
2023-02-04T02:37:34.637Z,4.20
2023-02-04T02:40:04.823Z,3.93
2023-02-04T02:42:33.912Z,3.87
2023-02-04T02:45:08.224Z,4.23
2023-02-04T02:47:36.254Z,4.50
2023-02-04T02:50:04.337Z,4.00
2023-02-04T02:52:32.328Z,3.93
2023-02-04T02:55:00.404Z,4.60
2023-02-04T02:57:30.005Z,4.63
2023-02-04T02:59:57.945Z,4.60
2023-02-04T03:02:26.516Z,3.77
2023-02-04T03:05:00.871Z,4.37
2023-02-04T03:07:31.263Z,4.33
2023-02-04T03:09:59.664Z,4.27
2023-02-04T03:12:29.541Z,4.20
2023-02-04T03:14:57.671Z,4.10
2023-02-04T03:17:25.819Z,4.23
2023-02-04T03:19:53.840Z,4.00
2023-02-04T03:22:21.965Z,3.97
2023-02-04T03:24:51.398Z,3.77
2023-02-04T03:27:20.788Z,3.97
2023-02-04T03:29:50.215Z,3.93
2023-02-04T03:32:18.683Z,4.43
2023-02-04T03:34:46.739Z,3.93
2023-02-04T03:37:14.688Z,4.57
2023-02-04T03:39:42.678Z,4.10
2023-02-04T03:42:10.574Z,4.20
2023-02-04T03:44:38.732Z,3.83
2023-02-04T03:47:08.341Z,4.13
2023-02-04T03:49:36.500Z,5.20
2023-02-04T03:52:05.219Z,4.63
2023-02-04T03:54:33.248Z,4.80
2023-02-04T03:57:01.232Z,4.80
2023-02-04T03:59:29.506Z,4.37
2023-02-04T04:01:57.632Z,3.47
2023-02-04T04:04:27.398Z,4.17
2023-02-04T04:06:55.532Z,4.00
2023-02-04T04:09:23.643Z,4.07
2023-02-04T04:11:51.715Z,4.53
2023-02-04T04:14:19.674Z,3.73
2023-02-04T04:16:47.652Z,3.80
2023-02-04T04:19:15.646Z,4.57
2023-02-04T04:21:45.093Z,4.30
2023-02-04T04:24:13.117Z,4.07
2023-02-04T04:26:41.155Z,4.20
2023-02-04T04:29:09.261Z,3.53
2023-02-04T04:31:37.324Z,4.70
2023-02-04T04:34:05.406Z,4.20
2023-02-04T04:36:33.461Z,4.20
2023-02-04T04:39:03.074Z,4.60
2023-02-04T04:41:31.034Z,4.27
2023-02-04T04:43:59.327Z,3.90
2023-02-04T04:46:27.305Z,3.60
2023-02-04T04:48:55.355Z,4.20
2023-02-04T04:51:23.417Z,3.87
2023-02-04T04:53:52.091Z,4.27
2023-02-04T04:56:21.429Z,4.10
2023-02-04T04:58:49.457Z,3.57
2023-02-04T05:01:17.582Z,3.23
2023-02-04T05:03:45.547Z,3.83
2023-02-04T05:06:13.505Z,3.40
2023-02-04T05:08:42.674Z,3.87
2023-02-04T05:11:11.694Z,4.13
2023-02-04T05:13:41.329Z,3.00
2023-02-04T05:16:12.201Z,3.93
2023-02-04T05:18:40.913Z,3.70
2023-02-04T05:21:09.163Z,4.20
2023-02-04T05:23:37.100Z,3.23
2023-02-04T05:26:05.174Z,4.03
2023-02-04T05:28:33.024Z,3.43
2023-02-04T05:31:02.533Z,3.80
2023-02-04T05:33:30.503Z,3.70
2023-02-04T05:35:58.514Z,4.63
2023-02-04T05:38:26.387Z,4.17
2023-02-04T05:40:54.312Z,4.27
2023-02-04T05:43:22.251Z,3.83
2023-02-04T05:45:50.137Z,3.20
2023-02-04T05:48:19.657Z,4.07
2023-02-04T05:50:47.560Z,3.93
2023-02-04T05:53:15.511Z,4.20
2023-02-04T05:55:43.543Z,4.23
2023-02-04T05:58:11.515Z,4.50
2023-02-04T06:00:39.360Z,4.10
2023-02-04T06:03:07.558Z,4.03
2023-02-04T06:05:37.121Z,4.73
2023-02-04T06:08:05.466Z,4.40
2023-02-04T06:10:33.833Z,3.70
2023-02-04T06:13:01.835Z,4.57
2023-02-04T06:15:30.189Z,5.33
2023-02-04T06:17:58.560Z,4.63
2023-02-04T06:20:26.580Z,3.90
2023-02-04T06:22:55.972Z,3.33
2023-02-04T06:25:24.468Z,4.23
2023-02-04T06:27:52.636Z,4.67
2023-02-04T06:30:20.953Z,4.40
2023-02-04T06:32:48.933Z,4.53
2023-02-04T06:35:16.869Z,4.30
2023-02-04T06:37:45.187Z,4.00
2023-02-04T06:40:14.947Z,4.00
2023-02-04T06:42:42.906Z,3.93
2023-02-04T06:45:11.333Z,4.77
2023-02-04T06:47:39.284Z,4.70
2023-02-04T06:50:07.790Z,4.30
2023-02-04T06:52:35.792Z,4.87
2023-02-04T06:55:03.879Z,4.93
2023-02-04T06:57:33.202Z,4.73
2023-02-04T07:00:01.118Z,4.70
2023-02-04T07:02:29.125Z,4.40
2023-02-04T07:04:57.268Z,4.83
2023-02-04T07:07:25.258Z,4.73
2023-02-04T07:09:53.309Z,4.63
2023-02-04T07:12:21.292Z,5.00
2023-02-04T07:14:50.916Z,4.13
2023-02-04T07:17:18.823Z,4.30
2023-02-04T07:19:46.847Z,4.60
2023-02-04T07:22:14.743Z,4.43
2023-02-04T07:24:42.739Z,4.57
2023-02-04T07:27:10.738Z,4.97
2023-02-04T07:29:38.778Z,4.77
2023-02-04T07:32:08.343Z,4.10
2023-02-04T07:34:36.437Z,3.83
2023-02-04T07:37:04.472Z,4.27
2023-02-04T07:39:32.552Z,4.40
2023-02-04T07:42:00.507Z,4.87
2023-02-04T07:44:35.344Z,4.37
2023-02-04T07:47:03.412Z,4.60
2023-02-04T07:49:32.891Z,4.43
2023-02-04T07:52:00.807Z,4.00
2023-02-04T07:54:28.826Z,4.97
2023-02-04T07:56:56.756Z,4.90
2023-02-04T07:59:24.679Z,4.40
2023-02-04T08:01:52.751Z,4.73
2023-02-04T08:04:20.783Z,4.93
2023-02-04T08:06:50.179Z,4.43
2023-02-04T08:09:18.180Z,4.73
2023-02-04T08:11:46.427Z,4.60
2023-02-04T08:14:14.607Z,4.47
2023-02-04T08:16:42.551Z,4.80
2023-02-04T08:19:10.483Z,4.47
2023-02-04T08:21:38.415Z,5.00
2023-02-04T08:24:07.992Z,5.00
2023-02-04T08:26:36.019Z,5.20
2023-02-04T08:29:03.912Z,5.07
2023-02-04T08:31:31.880Z,5.27
2023-02-04T08:33:59.942Z,4.80
2023-02-04T08:36:27.850Z,5.23
2023-02-04T08:38:56.397Z,4.77
2023-02-04T08:41:26.342Z,4.87
2023-02-04T08:43:54.459Z,5.07
2023-02-04T08:46:22.385Z,5.20
2023-02-04T08:48:52.916Z,5.47
2023-02-04T08:51:21.306Z,6.03
2023-02-04T08:53:51.776Z,4.70
2023-02-04T08:56:20.710Z,5.57
2023-02-04T08:58:51.370Z,5.83
2023-02-04T09:01:20.065Z,5.63
2023-02-04T09:03:48.820Z,4.50
2023-02-04T09:06:17.102Z,5.13
2023-02-04T09:08:45.423Z,4.93
2023-02-04T09:11:15.041Z,5.67
2023-02-04T09:13:43.413Z,4.80
2023-02-04T09:16:14.967Z,4.63
2023-02-04T09:18:46.517Z,5.53
2023-02-04T09:21:14.800Z,5.70
2023-02-04T09:23:43.244Z,5.67
2023-02-04T09:26:11.197Z,7.87
2023-02-04T09:28:39.633Z,8.57
2023-02-04T09:31:07.653Z,9.33
2023-02-04T09:33:37.366Z,9.17
2023-02-04T09:36:06.224Z,8.73
2023-02-04T09:38:34.294Z,6.93
2023-02-04T09:41:04.503Z,6.10
2023-02-04T09:43:35.718Z,7.13
2023-02-04T09:46:04.519Z,7.33
2023-02-04T09:48:32.506Z,7.47
2023-02-04T09:51:09.376Z,8.23
2023-02-04T09:53:38.036Z,8.27
2023-02-04T09:56:06.936Z,8.83
2023-02-04T09:58:36.422Z,9.07
2023-02-04T10:01:13.975Z,7.87
2023-02-04T10:03:46.750Z,9.37
2023-02-04T10:06:18.072Z,7.43
2023-02-04T10:08:47.882Z,8.63
2023-02-04T10:11:19.657Z,8.13
2023-02-04T10:13:50.489Z,8.37
2023-02-04T10:16:21.499Z,8.53
2023-02-04T10:18:49.644Z,8.47
2023-02-04T10:21:21.998Z,7.10
2023-02-04T10:23:52.966Z,8.10
2023-02-04T10:26:22.701Z,10.57
2023-02-04T10:28:50.600Z,11.23
2023-02-04T10:31:34.277Z,14.13
2023-02-04T10:34:07.500Z,15.80
2023-02-04T10:36:37.222Z,21.20
2023-02-04T10:39:08.379Z,20.57
2023-02-04T10:41:38.765Z,16.30
2023-02-04T10:44:08.311Z,11.63
2023-02-04T10:46:36.201Z,12.60
2023-02-04T10:49:05.888Z,11.60
2023-02-04T10:51:34.586Z,12.70
2023-02-04T10:54:17.896Z,11.53
2023-02-04T10:56:45.846Z,13.03
2023-02-04T10:59:26.715Z,15.83
2023-02-04T11:01:56.066Z,15.87
2023-02-04T11:04:24.357Z,16.50
2023-02-04T11:06:52.842Z,14.33
2023-02-04T11:09:22.704Z,15.33
2023-02-04T11:11:52.270Z,16.63
2023-02-04T11:14:28.223Z,17.53
2023-02-04T11:17:00.758Z,18.30
2023-02-04T11:19:35.745Z,17.57
2023-02-04T11:22:23.828Z,15.80
2023-02-04T11:24:53.397Z,16.27
2023-02-04T11:27:24.660Z,14.33
2023-02-04T11:29:53.618Z,14.23
2023-02-04T11:32:35.149Z,14.77
2023-02-04T11:35:23.996Z,15.30
2023-02-04T11:37:51.925Z,15.17
2023-02-04T11:40:29.104Z,15.33
2023-02-04T11:43:02.824Z,15.37
2023-02-04T11:45:34.369Z,13.97
2023-02-04T11:48:05.609Z,14.97
2023-02-04T11:50:35.499Z,12.03
2023-02-04T11:53:03.891Z,13.67
2023-02-04T11:55:37.542Z,13.83
2023-02-04T11:58:07.381Z,14.97
2023-02-04T12:00:35.366Z,14.00
2023-02-04T12:03:20.889Z,15.10
2023-02-04T12:05:49.702Z,16.70
2023-02-04T12:08:28.732Z,15.93
2023-02-04T12:11:08.478Z,17.40
2023-02-04T12:13:49.515Z,16.50
2023-02-04T12:16:17.818Z,15.33
2023-02-04T12:18:46.299Z,15.80
2023-02-04T12:21:15.101Z,14.07
2023-02-04T12:23:43.529Z,13.30
2023-02-04T12:26:13.134Z,13.50
2023-02-04T12:28:41.214Z,12.73
2023-02-04T12:31:09.434Z,11.27
2023-02-04T12:33:37.568Z,11.57
2023-02-04T12:36:06.182Z,10.40
2023-02-04T12:38:34.212Z,9.50
2023-02-04T12:41:02.204Z,9.97
2023-02-04T12:43:31.633Z,10.33
2023-02-04T12:45:59.653Z,9.60
2023-02-04T12:48:27.606Z,9.10
2023-02-04T12:50:55.614Z,8.00
2023-02-04T12:53:23.718Z,7.00
2023-02-04T12:55:51.646Z,6.53
2023-02-04T12:58:19.586Z,7.40
2023-02-04T13:00:48.980Z,6.97
2023-02-04T13:03:17.681Z,7.47
2023-02-04T13:05:45.686Z,5.90
2023-02-04T13:08:13.579Z,5.30
2023-02-04T13:10:41.579Z,4.90
2023-02-04T13:13:09.569Z,4.97
2023-02-04T13:15:37.641Z,5.30
2023-02-04T13:18:08.278Z,5.77
2023-02-04T13:20:36.291Z,5.83
2023-02-04T13:23:04.400Z,5.00
2023-02-04T13:25:32.762Z,5.83
2023-02-04T13:28:00.939Z,6.13
2023-02-04T13:30:28.977Z,5.03
2023-02-04T13:32:56.994Z,4.90
2023-02-04T13:35:26.540Z,4.60
2023-02-04T13:37:56.452Z,4.83
2023-02-04T13:40:24.515Z,4.90
2023-02-04T13:42:52.501Z,5.13
2023-02-04T13:45:20.776Z,5.03
2023-02-04T13:47:49.033Z,5.10
2023-02-04T13:50:17.650Z,4.67
2023-02-04T13:52:47.029Z,4.50
2023-02-04T13:55:15.324Z,4.40
2023-02-04T13:57:43.511Z,4.17
2023-02-04T14:00:12.971Z,3.90
2023-02-04T14:02:41.124Z,3.80
2023-02-04T14:05:09.234Z,3.10
2023-02-04T14:07:37.093Z,3.00
2023-02-04T14:10:07.454Z,3.47
2023-02-04T14:12:35.605Z,3.30
2023-02-04T14:15:03.580Z,3.97
2023-02-04T14:17:31.616Z,3.40
2023-02-04T14:19:59.702Z,3.77
2023-02-04T14:22:27.671Z,3.50
2023-02-04T14:24:55.474Z,3.67
2023-02-04T14:27:24.743Z,6.10
2023-02-04T14:29:52.738Z,7.30
2023-02-04T14:32:21.931Z,7.60
2023-02-04T14:34:50.044Z,7.50
2023-02-04T14:37:18.115Z,6.80
2023-02-04T14:39:46.044Z,6.60
2023-02-04T14:42:14.044Z,7.03
2023-02-04T14:44:43.366Z,6.73
2023-02-04T14:47:11.440Z,5.60
2023-02-04T14:49:39.700Z,5.80
2023-02-04T14:52:09.668Z,5.07
2023-02-04T14:54:38.616Z,5.50
2023-02-04T14:57:06.736Z,5.20
2023-02-04T14:59:34.943Z,5.57
2023-02-04T15:02:04.333Z,5.40
2023-02-04T15:04:32.604Z,4.53
2023-02-04T15:07:00.691Z,4.20
2023-02-04T15:09:28.686Z,3.63
2023-02-04T15:11:56.855Z,4.60
2023-02-04T15:14:24.813Z,4.43
2023-02-04T15:16:52.931Z,4.97
2023-02-04T15:19:23.735Z,4.60
2023-02-04T15:21:52.109Z,4.87
2023-02-04T15:24:20.022Z,3.93
2023-02-04T15:26:47.999Z,6.30
2023-02-04T15:29:15.838Z,5.53
2023-02-04T15:31:43.980Z,5.43
2023-02-04T15:34:12.085Z,5.23
2023-02-04T15:36:41.564Z,4.53
2023-02-04T15:39:09.412Z,5.07
2023-02-04T15:41:37.424Z,4.90
2023-02-04T15:44:06.104Z,5.50
2023-02-04T15:46:34.826Z,4.33
2023-02-04T15:49:03.580Z,4.50
2023-02-04T15:51:31.714Z,5.17
2023-02-04T15:54:01.290Z,4.73
2023-02-04T15:56:29.311Z,4.20
2023-02-04T15:58:57.268Z,5.00
2023-02-04T16:01:25.331Z,4.77
2023-02-04T16:03:56.431Z,4.10
2023-02-04T16:06:24.458Z,4.40
2023-02-04T16:08:52.525Z,4.90
2023-02-04T16:11:21.859Z,4.40
2023-02-04T16:13:50.957Z,4.93
2023-02-04T16:16:19.537Z,4.33
2023-02-04T16:18:47.442Z,4.37
2023-02-04T16:21:15.251Z,4.30
2023-02-04T16:23:43.620Z,4.50
2023-02-04T16:26:12.021Z,4.13
2023-02-04T16:28:41.376Z,4.40
2023-02-04T16:31:10.131Z,4.10
2023-02-04T16:33:38.331Z,4.20
2023-02-04T16:36:11.702Z,4.10
2023-02-04T16:38:40.211Z,4.60
2023-02-04T16:41:08.174Z,4.77
2023-02-04T16:43:36.175Z,4.83
2023-02-04T16:46:05.924Z,5.23
2023-02-04T16:48:34.060Z,4.63
2023-02-04T16:51:01.960Z,4.40
2023-02-04T16:53:29.937Z,4.60
2023-02-04T16:55:57.888Z,5.63
2023-02-04T16:58:26.244Z,4.57
2023-02-04T17:00:54.659Z,5.33
2023-02-04T17:03:24.034Z,4.97
2023-02-04T17:05:52.010Z,5.47
2023-02-04T17:08:20.172Z,4.80
2023-02-04T17:11:05.428Z,5.30
2023-02-04T17:13:33.696Z,5.33
2023-02-04T17:16:02.164Z,4.73
2023-02-04T17:18:32.877Z,5.47
2023-02-04T17:21:01.372Z,4.70
2023-02-04T17:23:29.921Z,5.27
2023-02-04T17:25:57.974Z,5.80
2023-02-04T17:28:26.238Z,6.37
2023-02-04T17:30:54.287Z,5.20
2023-02-04T17:33:22.323Z,5.40
2023-02-04T17:35:51.801Z,4.70
2023-02-04T17:38:19.879Z,5.43
2023-02-04T17:40:47.831Z,5.67
2023-02-04T17:43:15.664Z,5.90
2023-02-04T17:45:43.696Z,5.33
2023-02-04T17:48:11.687Z,4.97
2023-02-04T17:50:40.233Z,6.43
2023-02-04T17:53:11.444Z,5.60
2023-02-04T17:55:40.317Z,5.00
2023-02-04T17:58:16.366Z,5.90
2023-02-04T18:00:46.565Z,5.20
2023-02-04T18:03:16.173Z,5.20
2023-02-04T18:05:48.169Z,4.20
2023-02-04T18:08:21.029Z,4.73
2023-02-04T18:10:51.148Z,4.77
2023-02-04T18:13:21.404Z,5.30
2023-02-04T18:15:52.083Z,5.70
2023-02-04T18:18:23.296Z,5.33
2023-02-04T18:20:59.356Z,5.33
2023-02-04T18:23:29.800Z,4.60
2023-02-04T18:26:06.231Z,4.87
2023-02-04T18:28:35.302Z,5.20
2023-02-04T18:31:04.716Z,5.90
2023-02-04T18:33:33.785Z,5.43
2023-02-04T18:36:02.809Z,6.13
2023-02-04T18:38:39.224Z,6.10
2023-02-04T18:41:27.624Z,6.13
2023-02-04T18:44:02.536Z,5.60
2023-02-04T18:46:33.883Z,5.73
2023-02-04T18:49:24.021Z,5.73
2023-02-04T18:51:52.615Z,5.57
2023-02-04T18:54:40.317Z,5.67
2023-02-04T18:57:30.093Z,6.00
2023-02-04T19:00:27.905Z,6.90
2023-02-04T19:02:58.747Z,7.63
2023-02-04T19:05:31.486Z,7.97
2023-02-04T19:08:24.524Z,8.47
2023-02-04T19:10:55.590Z,8.60
2023-02-04T19:13:27.464Z,8.17
2023-02-04T19:16:02.369Z,7.50
2023-02-04T19:18:37.524Z,7.03
2023-02-04T19:21:25.916Z,5.97
2023-02-04T19:23:59.975Z,6.53
2023-02-04T19:26:35.292Z,5.67
2023-02-04T19:29:40.338Z,5.93
2023-02-04T19:32:27.520Z,5.43
2023-02-04T19:34:58.712Z,7.17
2023-02-04T19:37:28.460Z,5.90
2023-02-04T19:39:57.171Z,5.30
2023-02-04T19:42:36.644Z,4.97
2023-02-04T19:45:19.267Z,4.27
2023-02-04T19:47:47.183Z,4.80
2023-02-04T19:50:23.801Z,5.63
2023-02-04T19:52:55.684Z,4.27
2023-02-04T19:55:32.988Z,4.90
2023-02-04T19:58:14.422Z,4.50
2023-02-04T20:01:01.040Z,4.30
2023-02-04T20:03:35.891Z,4.40
2023-02-04T20:06:34.610Z,4.20
2023-02-04T20:09:05.335Z,4.07
2023-02-04T20:11:52.126Z,4.47
2023-02-04T20:14:37.876Z,4.27
2023-02-04T20:17:27.433Z,5.13
2023-02-04T20:19:56.148Z,4.57
2023-02-04T20:22:45.652Z,5.30
2023-02-04T20:25:40.005Z,4.50
2023-02-04T20:28:39.945Z,3.97
2023-02-04T20:31:28.532Z,3.93
2023-02-04T20:33:59.548Z,4.53
2023-02-04T20:36:36.222Z,4.17
2023-02-04T20:39:33.363Z,4.40
2023-02-04T20:42:28.824Z,4.63
2023-02-04T20:45:00.682Z,4.70
2023-02-04T20:47:35.729Z,4.13
2023-02-04T20:50:23.752Z,5.07
2023-02-04T20:53:06.775Z,5.50
2023-02-04T20:55:36.156Z,7.13
2023-02-04T20:58:16.261Z,5.80
2023-02-04T21:00:46.102Z,6.47
2023-02-04T21:03:25.059Z,6.93
2023-02-04T21:05:54.489Z,6.07
2023-02-04T21:08:33.956Z,7.13
2023-02-04T21:11:02.554Z,7.73
2023-02-04T21:13:30.498Z,7.23
2023-02-04T21:15:59.008Z,8.23
2023-02-04T21:18:29.482Z,8.50
2023-02-04T21:20:57.718Z,8.77
2023-02-04T21:23:25.632Z,8.70
2023-02-04T21:25:53.718Z,7.90
2023-02-04T21:28:21.664Z,7.97
2023-02-04T21:30:50.014Z,8.07
2023-02-04T21:33:18.823Z,6.40
2023-02-04T21:35:48.222Z,8.13
2023-02-04T21:38:16.156Z,7.93
2023-02-04T21:40:44.680Z,7.27
2023-02-04T21:43:12.857Z,7.70
2023-02-04T21:45:40.877Z,7.33
2023-02-04T21:48:09.077Z,7.80
2023-02-04T21:50:38.469Z,8.00
2023-02-04T21:53:08.729Z,7.90
2023-02-04T21:55:37.391Z,7.47
2023-02-04T21:58:05.842Z,7.27
2023-02-04T22:00:34.076Z,7.23
2023-02-04T22:03:02.400Z,6.60
2023-02-04T22:05:30.738Z,6.90
2023-02-04T22:07:59.942Z,7.87
2023-02-04T22:10:29.519Z,7.70
2023-02-04T22:12:57.656Z,8.37
2023-02-04T22:15:25.706Z,10.07
2023-02-04T22:17:54.765Z,11.50
2023-02-04T22:20:23.983Z,12.17
2023-02-04T22:22:52.435Z,11.67
2023-02-04T22:25:21.872Z,11.47
2023-02-04T22:27:51.603Z,11.83
2023-02-04T22:30:20.316Z,10.57
2023-02-04T22:32:48.466Z,10.40
2023-02-04T22:35:16.983Z,11.67
2023-02-04T22:37:45.029Z,10.33
2023-02-04T22:40:14.074Z,11.87
2023-02-04T22:42:42.095Z,10.07
2023-02-04T22:45:11.649Z,9.80
2023-02-04T22:47:40.003Z,9.13
2023-02-04T22:50:08.892Z,8.87
2023-02-04T22:52:43.759Z,10.03
2023-02-04T22:55:11.946Z,10.07
2023-02-04T22:57:39.936Z,10.13
2023-02-04T23:00:12.064Z,9.93
2023-02-04T23:02:40.025Z,10.43
2023-02-04T23:05:08.271Z,9.80
2023-02-04T23:07:36.457Z,9.93
2023-02-04T23:10:04.494Z,10.03
2023-02-04T23:12:32.396Z,9.23
2023-02-04T23:15:00.414Z,9.73
2023-02-04T23:17:29.788Z,9.03
2023-02-04T23:19:57.720Z,10.83
2023-02-04T23:22:25.850Z,9.50
2023-02-04T23:24:54.184Z,9.67
2023-02-04T23:27:22.257Z,9.90
2023-02-04T23:29:50.230Z,8.87
2023-02-04T23:32:18.103Z,9.27
2023-02-04T23:34:47.448Z,9.70
2023-02-04T23:37:15.550Z,9.87
2023-02-04T23:39:43.400Z,9.10
2023-02-04T23:42:18.078Z,10.40
2023-02-04T23:44:46.063Z,10.00
2023-02-04T23:47:14.053Z,10.13
2023-02-04T23:49:42.221Z,9.77
2023-02-04T23:52:11.552Z,10.17
2023-02-04T23:54:40.020Z,10.60
2023-02-04T23:57:07.926Z,10.97
2023-02-04T23:59:36.304Z,10.37
